Time;durP1;ratioP1;P1;durP2;ratioP2;P2;SDS_P1;SDS_P2;PMS_P1;PMS_P2;Temp;Humidity;BMP_temperature;BMP_pressure;BME280_temperature;BME280_humidity;BME280_pressure;Samples;Min_cycle;Max_cycle;Signal;HPM_P1;HPM_P2
2021/07/21 00:02:15;;;;;;;22.57;21.10;;;;;;;;;;5055720;28;20431;-93
2021/07/21 00:04:42;;;;;;;23.37;21.87;;;;;;;;;;5055677;28;20464;-93
2021/07/21 00:07:11;;;;;;;23.90;22.50;;;;;;;;;;5037924;28;20509;-94
2021/07/21 00:09:38;;;;;;;25.37;23.57;;;;;;;;;;5037915;28;20437;-93
2021/07/21 00:15:05;;;;;;;24.70;23.10;;;;;;;;;;4994921;28;20417;-94
2021/07/21 00:17:34;;;;;;;24.03;22.43;;;;;;;;;;4994664;28;20523;-93
2021/07/21 00:20:07;;;;;;;23.37;21.77;;;;;;;;;;4978423;28;20446;-93
2021/07/21 00:22:36;;;;;;;24.23;22.50;;;;;;;;;;4994692;28;20454;-93
2021/07/21 00:25:04;;;;;;;23.43;21.93;;;;;;;;;;4994199;28;20511;-93
2021/07/21 00:27:31;;;;;;;23.93;22.17;;;;;;;;;;4993771;28;20454;-93
2021/07/21 00:29:59;;;;;;;23.57;22.07;;;;;;;;;;4994746;28;20447;-94
2021/07/21 00:32:28;;;;;;;23.27;21.67;;;;;;;;;;4994384;28;20503;-94
2021/07/21 00:34:55;;;;;;;24.67;23.07;;;;;;;;;;4994227;28;20782;-93
2021/07/21 00:37:22;;;;;;;23.60;22.20;;;;;;;;;;4993358;28;20423;-94
2021/07/21 00:39:50;;;;;;;25.10;23.30;;;;;;;;;;4994197;28;20418;-93
2021/07/21 00:42:17;;;;;;;24.60;22.90;;;;;;;;;;4993807;28;20446;-92
2021/07/21 00:44:45;;;;;;;23.97;22.47;;;;;;;;;;4993971;28;20414;-93
2021/07/21 00:47:12;;;;;;;24.03;22.43;;;;;;;;;;4993776;28;21095;-93
2021/07/21 00:49:42;;;;;;;24.73;23.13;;;;;;;;;;5036022;28;20437;-93
2021/07/21 00:52:09;;;;;;;23.43;22.07;;;;;;;;;;5054834;28;20427;-93
2021/07/21 00:54:37;;;;;;;22.70;21.23;;;;;;;;;;5054478;28;20437;-93
2021/07/21 00:57:05;;;;;;;24.30;22.70;;;;;;;;;;5054268;28;20541;-93
2021/07/21 00:59:34;;;;;;;24.23;22.63;;;;;;;;;;5036845;28;20464;-94
2021/07/21 01:02:02;;;;;;;22.33;20.93;;;;;;;;;;5054384;28;20485;-93
2021/07/21 01:04:29;;;;;;;21.73;20.43;;;;;;;;;;5054130;28;20807;-94
2021/07/21 01:06:59;;;;;;;23.63;22.20;;;;;;;;;;5054174;28;20538;-93
2021/07/21 01:09:26;;;;;;;23.43;21.93;;;;;;;;;;5054063;28;20441;-93
2021/07/21 01:11:58;;;;;;;22.97;21.47;;;;;;;;;;5054350;28;20437;-93
2021/07/21 01:14:29;;;;;;;23.03;21.43;;;;;;;;;;5054328;28;20414;-93
2021/07/21 01:16:58;;;;;;;24.10;22.50;;;;;;;;;;5036962;28;20452;-94
2021/07/21 01:19:38;;;;;;;23.43;21.93;;;;;;;;;;5054872;28;20444;-94
2021/07/21 01:22:13;;;;;;;23.70;22.03;;;;;;;;;;5054079;28;20445;-93
2021/07/21 01:24:48;;;;;;;24.13;22.37;;;;;;;;;;5054137;28;20427;-93
2021/07/21 01:27:26;;;;;;;22.53;21.13;;;;;;;;;;5020015;28;20865;-93
2021/07/21 01:29:54;;;;;;;22.17;20.83;;;;;;;;;;5054325;28;20442;-94
2021/07/21 01:32:25;;;;;;;23.43;21.83;;;;;;;;;;5055042;28;20420;-94
2021/07/21 01:34:54;;;;;;;23.37;21.87;;;;;;;;;;5054131;28;20917;-93
2021/07/21 01:37:22;;;;;;;22.47;21.10;;;;;;;;;;5036509;28;20965;-94
2021/07/21 01:39:52;;;;;;;23.23;21.63;;;;;;;;;;5054677;28;20417;-93
2021/07/21 01:42:20;;;;;;;22.20;20.70;;;;;;;;;;5054124;28;20433;-93
2021/07/21 01:44:51;;;;;;;23.43;21.87;;;;;;;;;;5036565;28;20426;-94
2021/07/21 01:47:22;;;;;;;23.43;22.03;;;;;;;;;;5053883;28;20448;-93
2021/07/21 01:49:51;;;;;;;23.97;22.47;;;;;;;;;;5056876;28;20439;-93
2021/07/21 01:52:20;;;;;;;22.47;21.07;;;;;;;;;;5057889;28;20451;-94
2021/07/21 01:54:49;;;;;;;23.63;22.03;;;;;;;;;;5058759;28;20915;-94
2021/07/21 01:57:16;;;;;;;22.30;20.90;;;;;;;;;;5057683;28;20458;-93
2021/07/21 01:59:45;;;;;;;23.07;21.57;;;;;;;;;;5058071;28;20411;-93
2021/07/21 02:02:14;;;;;;;23.13;21.73;;;;;;;;;;5057956;28;20429;-94
2021/07/21 02:04:41;;;;;;;23.80;22.30;;;;;;;;;;5057593;28;20457;-93
2021/07/21 02:07:10;;;;;;;22.07;20.80;;;;;;;;;;5057853;28;20766;-94
2021/07/21 02:09:38;;;;;;;23.60;21.90;;;;;;;;;;5057907;28;20437;-94
2021/07/21 02:12:06;;;;;;;24.13;22.63;;;;;;;;;;5057408;28;20443;-94
2021/07/21 02:14:34;;;;;;;22.83;21.43;;;;;;;;;;5057585;28;20426;-93
2021/07/21 02:17:01;;;;;;;23.60;22.07;;;;;;;;;;5057905;28;20410;-94
2021/07/21 02:19:31;;;;;;;23.43;21.80;;;;;;;;;;5040399;28;20446;-93
2021/07/21 02:21:59;;;;;;;23.13;21.67;;;;;;;;;;5057646;28;20447;-94
2021/07/21 02:24:28;;;;;;;22.40;21.00;;;;;;;;;;5057740;28;20454;-93
2021/07/21 02:26:55;;;;;;;22.63;21.00;;;;;;;;;;5057450;28;20407;-93
2021/07/21 02:29:23;;;;;;;23.90;22.40;;;;;;;;;;5057449;28;20825;-94
2021/07/21 02:31:52;;;;;;;23.67;22.27;;;;;;;;;;5057237;28;20433;-94
2021/07/21 02:34:20;;;;;;;23.97;22.47;;;;;;;;;;5057519;28;20416;-93
2021/07/21 02:36:49;;;;;;;24.77;23.17;;;;;;;;;;5057439;28;20398;-93
2021/07/21 02:39:16;;;;;;;22.47;21.07;;;;;;;;;;5057080;28;20442;-94
2021/07/21 02:41:44;;;;;;;23.33;21.57;;;;;;;;;;5057565;28;20912;-93
2021/07/21 02:44:12;;;;;;;23.63;22.13;;;;;;;;;;5056822;28;20832;-93
2021/07/21 02:46:39;;;;;;;23.13;21.73;;;;;;;;;;5057251;28;20439;-93
2021/07/21 02:49:07;;;;;;;23.87;22.33;;;;;;;;;;5057605;28;20901;-94
2021/07/21 02:51:35;;;;;;;23.67;21.97;;;;;;;;;;5057559;28;20425;-94
2021/07/21 02:54:20;;;;;;;23.93;22.43;;;;;;;;;;5056864;28;20414;-94
2021/07/21 02:56:48;;;;;;;23.10;21.63;;;;;;;;;;5056367;28;20437;-94
2021/07/21 02:59:17;;;;;;;23.13;21.53;;;;;;;;;;5057011;28;20487;-94
2021/07/21 03:01:48;;;;;;;22.57;21.17;;;;;;;;;;5055712;28;20433;-93
2021/07/21 03:04:16;;;;;;;22.13;20.80;;;;;;;;;;5056593;28;21024;-93
2021/07/21 03:06:44;;;;;;;23.20;21.40;;;;;;;;;;5056573;28;20405;-94
2021/07/21 03:09:13;;;;;;;22.13;20.90;;;;;;;;;;5056652;28;20511;-94
2021/07/21 03:11:41;;;;;;;22.37;21.07;;;;;;;;;;5056520;28;20444;-93
2021/07/21 03:14:09;;;;;;;21.50;20.17;;;;;;;;;;5056613;28;20415;-92
2021/07/21 03:16:43;;;;;;;21.67;20.37;;;;;;;;;;5057062;28;20448;-93
2021/07/21 03:19:10;;;;;;;21.77;20.47;;;;;;;;;;5056481;28;20945;-94
2021/07/21 03:21:38;;;;;;;23.20;21.80;;;;;;;;;;5056484;28;20433;-94
2021/07/21 03:24:07;;;;;;;22.80;21.40;;;;;;;;;;5056129;28;20452;-93
2021/07/21 03:26:37;;;;;;;22.30;20.80;;;;;;;;;;5056065;28;20468;-92
2021/07/21 03:29:05;;;;;;;22.50;21.00;;;;;;;;;;5038606;28;20479;-94
2021/07/21 03:31:32;;;;;;;22.30;21.00;;;;;;;;;;5038412;28;20442;-94
2021/07/21 03:34:03;;;;;;;22.20;20.90;;;;;;;;;;5056207;28;20777;-94
2021/07/21 03:36:31;;;;;;;23.47;21.43;;;;;;;;;;5056126;28;20419;-94
2021/07/21 03:38:59;;;;;;;22.03;20.63;;;;;;;;;;5056943;28;20425;-94
2021/07/21 03:41:27;;;;;;;22.27;20.53;;;;;;;;;;5057492;28;20424;-93
2021/07/21 03:43:56;;;;;;;21.97;20.60;;;;;;;;;;5055774;28;20440;-94
2021/07/21 03:46:24;;;;;;;21.90;20.60;;;;;;;;;;5055960;28;20426;-94
2021/07/21 03:48:51;;;;;;;22.87;21.23;;;;;;;;;;5055787;28;20483;-94
2021/07/21 03:51:18;;;;;;;22.07;20.57;;;;;;;;;;5055899;28;20453;-94
2021/07/21 03:53:46;;;;;;;22.17;20.77;;;;;;;;;;5055876;28;20438;-94
2021/07/21 03:56:14;;;;;;;23.10;21.50;;;;;;;;;;5055757;28;20801;-94
2021/07/21 03:58:42;;;;;;;23.57;22.03;;;;;;;;;;5055287;28;20479;-94
2021/07/21 04:01:11;;;;;;;22.57;21.07;;;;;;;;;;5055348;28;20461;-93
2021/07/21 04:03:39;;;;;;;23.33;21.93;;;;;;;;;;5055587;28;20475;-94
2021/07/21 04:06:08;;;;;;;22.50;21.00;;;;;;;;;;5037923;28;20427;-94
2021/07/21 04:08:35;;;;;;;22.40;20.93;;;;;;;;;;5055174;28;20471;-93
2021/07/21 04:11:04;;;;;;;22.00;20.50;;;;;;;;;;5038142;28;20462;-94
2021/07/21 04:13:31;;;;;;;22.60;21.27;;;;;;;;;;5055261;28;20409;-94
2021/07/21 04:15:59;;;;;;;22.40;21.00;;;;;;;;;;5055615;28;20444;-94
2021/07/21 04:18:28;;;;;;;21.93;20.53;;;;;;;;;;5055382;28;20428;-94
2021/07/21 04:20:56;;;;;;;22.20;20.80;;;;;;;;;;5055219;28;20396;-93
2021/07/21 04:23:24;;;;;;;22.33;20.93;;;;;;;;;;5055361;28;20438;-94
2021/07/21 04:25:52;;;;;;;21.87;20.33;;;;;;;;;;5055286;28;20441;-94
2021/07/21 04:28:20;;;;;;;21.90;20.50;;;;;;;;;;5055317;28;20479;-93
2021/07/21 04:30:48;;;;;;;23.40;21.60;;;;;;;;;;5055061;28;20414;-94
2021/07/21 04:33:15;;;;;;;22.23;20.73;;;;;;;;;;5054884;28;20425;-94
2021/07/21 04:35:44;;;;;;;23.27;21.73;;;;;;;;;;5055045;28;20456;-88
2021/07/21 04:38:12;;;;;;;22.37;20.93;;;;;;;;;;5037436;28;20450;-88
2021/07/21 04:40:43;;;;;;;22.20;20.70;;;;;;;;;;5054947;28;20424;-96
2021/07/21 04:43:10;;;;;;;24.23;22.47;;;;;;;;;;5054579;28;20941;-96
2021/07/21 04:45:40;;;;;;;23.67;21.83;;;;;;;;;;5055009;28;20481;-96
2021/07/21 04:48:08;;;;;;;23.57;22.03;;;;;;;;;;5054524;28;20410;-88
2021/07/21 04:50:35;;;;;;;23.90;22.40;;;;;;;;;;5054970;28;20412;-88
2021/07/21 04:53:04;;;;;;;24.07;22.47;;;;;;;;;;5054567;28;20415;-88
2021/07/21 04:55:32;;;;;;;23.43;21.70;;;;;;;;;;5054276;28;20498;-88
2021/07/21 04:57:59;;;;;;;22.57;21.00;;;;;;;;;;5054212;28;20455;-88
2021/07/21 05:00:26;;;;;;;23.27;21.70;;;;;;;;;;5054329;28;20925;-88
2021/07/21 05:02:54;;;;;;;23.87;22.37;;;;;;;;;;5054150;28;20446;-88
2021/07/21 05:05:21;;;;;;;22.80;21.17;;;;;;;;;;5054335;28;20439;-88
2021/07/21 05:07:49;;;;;;;23.80;22.10;;;;;;;;;;5054517;28;20798;-87
2021/07/21 05:10:18;;;;;;;22.87;21.30;;;;;;;;;;5054370;28;20951;-87
2021/07/21 05:12:45;;;;;;;23.53;21.93;;;;;;;;;;5054375;28;20436;-87
2021/07/21 05:15:13;;;;;;;24.13;22.30;;;;;;;;;;5054395;28;20426;-88
2021/07/21 05:17:40;;;;;;;24.00;22.40;;;;;;;;;;5054930;28;20401;-87
2021/07/21 05:20:08;;;;;;;24.63;23.03;;;;;;;;;;5054293;28;20422;-87
2021/07/21 05:22:36;;;;;;;23.93;22.23;;;;;;;;;;5054263;28;20409;-87
2021/07/21 05:25:03;;;;;;;24.77;23.27;;;;;;;;;;5053593;28;20421;-87
2021/07/21 05:27:33;;;;;;;24.03;22.53;;;;;;;;;;5053841;28;20444;-87
2021/07/21 05:30:00;;;;;;;24.00;22.37;;;;;;;;;;5054315;28;20458;-87
2021/07/21 05:32:28;;;;;;;24.83;23.10;;;;;;;;;;5054183;28;20418;-88
2021/07/21 05:34:55;;;;;;;24.20;22.60;;;;;;;;;;5053983;28;20427;-87
2021/07/21 05:37:22;;;;;;;24.70;22.80;;;;;;;;;;5054725;28;20422;-87
2021/07/21 05:39:50;;;;;;;24.57;22.83;;;;;;;;;;5054601;28;20462;-87
2021/07/21 05:42:17;;;;;;;25.43;23.60;;;;;;;;;;5053719;28;20418;-87
2021/07/21 05:44:46;;;;;;;23.57;22.07;;;;;;;;;;5054157;28;20427;-87
2021/07/21 05:47:13;;;;;;;25.70;23.90;;;;;;;;;;5053890;28;20432;-87
2021/07/21 05:49:41;;;;;;;24.97;23.27;;;;;;;;;;5054125;28;20466;-88
2021/07/21 05:52:09;;;;;;;25.77;24.07;;;;;;;;;;5053626;28;20466;-87
2021/07/21 05:54:39;;;;;;;25.33;23.53;;;;;;;;;;5053930;28;20410;-87
2021/07/21 05:57:06;;;;;;;25.37;23.67;;;;;;;;;;5053628;28;20511;-87
2021/07/21 05:59:34;;;;;;;24.60;23.00;;;;;;;;;;5053893;28;20429;-87
2021/07/21 06:02:03;;;;;;;25.27;23.57;;;;;;;;;;5036269;28;20506;-87
2021/07/21 06:04:30;;;;;;;25.10;23.33;;;;;;;;;;5053538;28;20478;-87
2021/07/21 06:06:57;;;;;;;26.23;24.27;;;;;;;;;;5054008;28;20406;-88
2021/07/21 06:09:25;;;;;;;25.37;23.57;;;;;;;;;;5036236;28;20483;-88
2021/07/21 06:11:53;;;;;;;24.47;22.80;;;;;;;;;;5053548;28;20930;-88
2021/07/21 06:14:20;;;;;;;26.77;25.00;;;;;;;;;;5036195;28;20419;-88
2021/07/21 06:16:47;;;;;;;25.70;23.90;;;;;;;;;;5053754;28;20418;-87
2021/07/21 06:19:16;;;;;;;26.00;24.20;;;;;;;;;;5054177;28;20437;-88
2021/07/21 06:21:44;;;;;;;27.57;24.83;;;;;;;;;;5053698;28;20426;-87
2021/07/21 06:24:12;;;;;;;25.20;23.37;;;;;;;;;;5053711;28;20507;-88
2021/07/21 06:26:39;;;;;;;25.63;23.70;;;;;;;;;;5053536;28;20439;-88
2021/07/21 06:29:06;;;;;;;24.80;23.17;;;;;;;;;;5053616;28;20476;-85
2021/07/21 06:31:34;;;;;;;24.77;23.10;;;;;;;;;;5053222;28;20440;-87
2021/07/21 06:34:01;;;;;;;25.73;24.03;;;;;;;;;;5053629;28;20433;-87
2021/07/21 06:36:30;;;;;;;25.33;23.83;;;;;;;;;;5055793;28;20495;-87
2021/07/21 06:38:57;;;;;;;24.80;23.10;;;;;;;;;;5057134;28;20436;-87
2021/07/21 06:41:25;;;;;;;25.30;23.50;;;;;;;;;;5056828;28;20436;-87
2021/07/21 06:43:54;;;;;;;26.10;24.30;;;;;;;;;;5056860;28;20407;-87
2021/07/21 06:46:21;;;;;;;26.40;24.47;;;;;;;;;;5057193;28;20407;-87
2021/07/21 06:48:49;;;;;;;25.70;23.90;;;;;;;;;;5039426;28;20486;-87
2021/07/21 06:51:16;;;;;;;24.57;22.97;;;;;;;;;;5056996;28;20406;-87
2021/07/21 06:53:45;;;;;;;24.53;22.83;;;;;;;;;;5056633;28;20415;-87
2021/07/21 06:56:13;;;;;;;24.23;22.70;;;;;;;;;;5057175;28;20424;-86
2021/07/21 06:58:40;;;;;;;24.83;23.23;;;;;;;;;;5056459;28;20452;-87
2021/07/21 07:01:08;;;;;;;26.10;24.13;;;;;;;;;;5056791;28;20418;-87
2021/07/21 07:03:35;;;;;;;24.53;22.90;;;;;;;;;;5056431;28;20436;-87
2021/07/21 07:06:03;;;;;;;25.63;23.70;;;;;;;;;;5056565;28;20456;-87
2021/07/21 07:08:30;;;;;;;28.00;25.40;;;;;;;;;;5039284;28;20445;-87
2021/07/21 07:10:59;;;;;;;27.07;24.87;;;;;;;;;;5038860;28;20497;-87
2021/07/21 07:13:26;;;;;;;25.57;23.63;;;;;;;;;;5056176;28;20914;-87
2021/07/21 07:15:55;;;;;;;26.07;24.27;;;;;;;;;;5056533;28;20426;-87
2021/07/21 07:18:22;;;;;;;26.83;24.87;;;;;;;;;;5056605;28;20440;-86
2021/07/21 07:20:50;;;;;;;27.77;25.50;;;;;;;;;;5056080;28;20430;-87
2021/07/21 07:23:17;;;;;;;26.77;24.87;;;;;;;;;;5056342;28;20440;-87
2021/07/21 07:25:45;;;;;;;26.43;24.63;;;;;;;;;;5056127;28;20456;-86
2021/07/21 07:28:14;;;;;;;28.83;26.40;;;;;;;;;;5056831;28;20444;-87
2021/07/21 07:30:41;;;;;;;27.37;25.47;;;;;;;;;;5056141;28;20849;-87
2021/07/21 07:33:09;;;;;;;26.20;24.50;;;;;;;;;;5038221;28;20819;-86
2021/07/21 07:35:39;;;;;;;26.13;24.33;;;;;;;;;;5056868;28;20434;-87
2021/07/21 07:38:07;;;;;;;27.20;25.30;;;;;;;;;;5056140;28;20460;-87
2021/07/21 07:40:34;;;;;;;25.90;24.20;;;;;;;;;;5056409;28;20779;-87
2021/07/21 07:43:02;;;;;;;26.10;24.30;;;;;;;;;;5056337;28;20448;-87
2021/07/21 07:45:30;;;;;;;27.07;24.87;;;;;;;;;;5055717;28;20456;-87
2021/07/21 07:47:58;;;;;;;27.97;25.83;;;;;;;;;;5055598;28;20412;-87
2021/07/21 07:50:25;;;;;;;27.60;25.40;;;;;;;;;;5055755;28;20467;-87
2021/07/21 07:52:53;;;;;;;27.60;25.50;;;;;;;;;;5055390;28;20514;-87
2021/07/21 07:55:20;;;;;;;25.97;24.17;;;;;;;;;;5037882;28;20423;-86
2021/07/21 07:57:47;;;;;;;27.03;25.13;;;;;;;;;;5055243;28;21021;-87
2021/07/21 08:00:16;;;;;;;28.33;26.23;;;;;;;;;;5055386;28;20441;-86
2021/07/21 08:02:45;;;;;;;27.80;25.70;;;;;;;;;;5055569;28;20447;-86
2021/07/21 08:05:13;;;;;;;27.73;25.93;;;;;;;;;;5055656;28;20877;-87
2021/07/21 08:07:41;;;;;;;26.40;24.60;;;;;;;;;;5037933;28;20448;-87
2021/07/21 08:10:12;;;;;;;28.00;25.90;;;;;;;;;;5055436;28;20834;-86
2021/07/21 08:12:40;;;;;;;26.53;24.53;;;;;;;;;;5055336;28;20490;-85
2021/07/21 08:15:08;;;;;;;26.90;25.00;;;;;;;;;;5055411;28;20789;-86
2021/07/21 08:17:36;;;;;;;25.73;23.90;;;;;;;;;;5055334;28;20444;-87
2021/07/21 08:20:05;;;;;;;26.53;24.63;;;;;;;;;;5055034;28;20524;-87
2021/07/21 08:22:38;;;;;;;27.03;25.00;;;;;;;;;;5054975;28;20443;-86
2021/07/21 08:25:06;;;;;;;25.87;24.17;;;;;;;;;;5055130;28;20873;-86
2021/07/21 08:27:34;;;;;;;28.50;26.30;;;;;;;;;;5054758;28;20434;-86
2021/07/21 08:30:01;;;;;;;27.40;25.40;;;;;;;;;;5054585;28;20474;-87
2021/07/21 08:32:29;;;;;;;27.73;25.70;;;;;;;;;;5055023;28;20441;-87
2021/07/21 08:34:56;;;;;;;26.80;25.10;;;;;;;;;;5054838;28;20454;-86
2021/07/21 08:37:25;;;;;;;27.17;25.27;;;;;;;;;;5055024;28;20409;-86
2021/07/21 08:39:52;;;;;;;26.57;24.77;;;;;;;;;;5054872;28;20793;-87
2021/07/21 08:42:20;;;;;;;25.80;24.10;;;;;;;;;;5054785;28;20412;-87
2021/07/21 08:44:48;;;;;;;25.90;24.00;;;;;;;;;;5054538;28;20468;-86
2021/07/21 08:47:15;;;;;;;25.67;23.93;;;;;;;;;;5054594;28;20948;-87
2021/07/21 08:49:42;;;;;;;25.77;24.13;;;;;;;;;;5054662;28;20463;-86
2021/07/21 08:52:10;;;;;;;26.63;24.70;;;;;;;;;;5054343;28;20434;-87
2021/07/21 08:54:39;;;;;;;24.70;23.20;;;;;;;;;;5054239;28;20415;-86
2021/07/21 08:57:07;;;;;;;24.43;22.83;;;;;;;;;;5054138;28;20472;-86
2021/07/21 08:59:34;;;;;;;24.30;22.80;;;;;;;;;;5053729;28;20484;-86
2021/07/21 09:02:02;;;;;;;24.23;22.73;;;;;;;;;;5054147;28;20432;-86
2021/07/21 09:04:29;;;;;;;23.63;21.90;;;;;;;;;;5054431;28;20472;-86
2021/07/21 09:06:57;;;;;;;24.90;23.27;;;;;;;;;;5054212;28;20437;-86
2021/07/21 09:09:24;;;;;;;23.57;21.87;;;;;;;;;;5054444;28;20435;-86
2021/07/21 09:11:53;;;;;;;25.47;23.53;;;;;;;;;;5055191;28;20416;-86
2021/07/21 09:14:20;;;;;;;24.23;22.73;;;;;;;;;;5054331;28;20830;-86
2021/07/21 09:17:05;;;;;;;24.53;22.70;;;;;;;;;;5054026;28;20426;-86
2021/07/21 09:19:34;;;;;;;23.33;21.90;;;;;;;;;;5053950;28;20408;-86
2021/07/21 09:22:12;;;;;;;24.73;23.10;;;;;;;;;;5053836;28;20438;-87
2021/07/21 09:24:40;;;;;;;24.60;23.00;;;;;;;;;;5053900;28;20488;-86
2021/07/21 09:27:09;;;;;;;24.33;22.73;;;;;;;;;;5053625;28;20423;-86
2021/07/21 09:29:36;;;;;;;25.43;23.60;;;;;;;;;;5054080;28;20794;-87
2021/07/21 09:32:04;;;;;;;25.43;23.73;;;;;;;;;;5054110;28;20419;-86
2021/07/21 09:34:34;;;;;;;25.30;23.60;;;;;;;;;;5036446;28;20951;-87
2021/07/21 09:37:02;;;;;;;25.53;23.73;;;;;;;;;;5054204;28;20503;-85
2021/07/21 09:39:36;;;;;;;26.90;25.00;;;;;;;;;;5054059;28;20408;-86
2021/07/21 09:42:04;;;;;;;25.20;23.50;;;;;;;;;;5054045;28;20416;-86
2021/07/21 09:44:38;;;;;;;26.07;24.20;;;;;;;;;;5053806;28;20924;-87
2021/07/21 09:47:13;;;;;;;25.63;23.90;;;;;;;;;;5053697;28;20901;-86
2021/07/21 09:49:41;;;;;;;26.30;24.50;;;;;;;;;;5053972;28;20423;-87
2021/07/21 09:52:15;;;;;;;26.87;24.93;;;;;;;;;;5053472;28;20507;-87
2021/07/21 09:54:42;;;;;;;25.20;23.50;;;;;;;;;;5054022;28;20411;-86
2021/07/21 09:57:13;;;;;;;26.23;24.30;;;;;;;;;;5053296;28;20509;-87
2021/07/21 09:59:42;;;;;;;27.03;24.93;;;;;;;;;;5053481;28;20812;-86
2021/07/21 10:02:16;;;;;;;26.40;24.50;;;;;;;;;;5053735;28;20480;-86
2021/07/21 10:04:45;;;;;;;26.27;24.50;;;;;;;;;;5053629;28;20437;-87
2021/07/21 10:07:34;;;;;;;25.07;23.37;;;;;;;;;;5036114;28;20418;-86
2021/07/21 10:10:10;;;;;;;25.03;23.33;;;;;;;;;;5054902;28;20979;-87
2021/07/21 10:12:38;;;;;;;26.50;24.70;;;;;;;;;;5057423;28;20434;-86
2021/07/21 10:15:07;;;;;;;25.80;24.10;;;;;;;;;;5057603;28;20440;-86
2021/07/21 10:17:35;;;;;;;26.50;24.67;;;;;;;;;;5057211;28;20445;-86
2021/07/21 10:20:02;;;;;;;25.83;24.07;;;;;;;;;;5057455;28;20805;-86
2021/07/21 10:22:30;;;;;;;25.90;24.07;;;;;;;;;;5040031;28;20436;-86
2021/07/21 10:24:57;;;;;;;26.10;24.40;;;;;;;;;;5057235;28;20408;-87
2021/07/21 10:27:25;;;;;;;26.87;25.03;;;;;;;;;;5057413;28;20425;-86
2021/07/21 10:29:54;;;;;;;27.17;25.27;;;;;;;;;;5057002;28;20446;-86
2021/07/21 10:32:23;;;;;;;28.00;26.10;;;;;;;;;;5057224;28;20449;-86
2021/07/21 10:34:51;;;;;;;25.93;24.13;;;;;;;;;;5057509;28;20433;-86
2021/07/21 10:37:18;;;;;;;27.63;25.40;;;;;;;;;;5057232;28;20809;-86
2021/07/21 10:39:46;;;;;;;27.17;25.30;;;;;;;;;;5057084;28;20416;-86
2021/07/21 10:42:15;;;;;;;27.63;25.73;;;;;;;;;;5056666;28;20899;-86
2021/07/21 10:44:43;;;;;;;27.80;25.90;;;;;;;;;;5057132;28;20510;-87
2021/07/21 10:47:25;;;;;;;26.40;24.50;;;;;;;;;;5057049;28;20437;-86
2021/07/21 10:49:55;;;;;;;27.43;25.43;;;;;;;;;;5039213;28;20464;-86
2021/07/21 10:55:23;;;;;;;28.17;26.20;;;;;;;;;;5056736;28;20424;-86
2021/07/21 11:00:39;;;;;;;27.20;25.17;;;;;;;;;;5036513;28;20493;-86
2021/07/21 11:03:19;;;;;;;27.43;25.43;;;;;;;;;;5036244;28;20468;-85
2021/07/21 11:05:50;;;;;;;29.17;27.17;;;;;;;;;;5036259;28;20433;-86
2021/07/21 11:08:18;;;;;;;28.70;26.60;;;;;;;;;;5036658;28;20440;-86
2021/07/21 11:10:46;;;;;;;28.93;26.83;;;;;;;;;;5036335;28;20480;-86
2021/07/21 11:13:14;;;;;;;29.27;27.27;;;;;;;;;;5036287;28;20457;-86
2021/07/21 11:15:43;;;;;;;27.63;25.63;;;;;;;;;;5035536;28;20856;-86
2021/07/21 11:18:25;;;;;;;28.87;26.80;;;;;;;;;;5035389;28;20436;-86
2021/07/21 11:21:00;;;;;;;27.33;25.40;;;;;;;;;;5033449;28;20462;-86
2021/07/21 11:23:43;;;;;;;27.40;25.50;;;;;;;;;;5036294;28;20454;-87
2021/07/21 11:26:30;;;;;;;27.50;25.60;;;;;;;;;;5036095;28;20442;-86
2021/07/21 11:28:57;;;;;;;28.90;26.90;;;;;;;;;;5036402;28;20517;-86
2021/07/21 11:31:43;;;;;;;27.77;25.87;;;;;;;;;;5036151;28;20472;-86
2021/07/21 11:34:12;;;;;;;29.80;27.60;;;;;;;;;;5036266;28;20443;-86
2021/07/21 11:36:54;;;;;;;28.90;26.77;;;;;;;;;;5036293;28;20394;-86
2021/07/21 11:39:35;;;;;;;29.50;27.30;;;;;;;;;;5035796;28;20481;-86
2021/07/21 11:42:03;;;;;;;29.30;27.30;;;;;;;;;;5035871;28;20440;-86
2021/07/21 11:44:31;;;;;;;30.20;28.00;;;;;;;;;;5035819;28;20436;-86
2021/07/21 11:47:00;;;;;;;29.63;27.30;;;;;;;;;;5035969;28;20411;-86
2021/07/21 11:49:28;;;;;;;29.20;27.07;;;;;;;;;;5035596;28;20437;-87
2021/07/21 11:51:58;;;;;;;28.13;26.07;;;;;;;;;;5035967;28;20486;-86
2021/07/21 11:54:28;;;;;;;30.03;27.83;;;;;;;;;;5035549;28;20471;-86
2021/07/21 11:56:55;;;;;;;28.73;26.73;;;;;;;;;;5038578;28;20949;-86
2021/07/21 11:59:29;;;;;;;28.50;26.43;;;;;;;;;;5055287;28;20434;-86
2021/07/21 12:02:03;;;;;;;29.67;27.20;;;;;;;;;;5055482;28;20447;-86
2021/07/21 12:04:31;;;;;;;29.53;27.43;;;;;;;;;;5055530;28;20443;-86
2021/07/21 12:07:00;;;;;;;27.97;25.97;;;;;;;;;;5055773;28;20987;-87
2021/07/21 12:09:28;;;;;;;29.30;27.00;;;;;;;;;;5055195;28;20402;-86
2021/07/21 12:11:56;;;;;;;28.83;26.33;;;;;;;;;;5055048;28;20457;-87
2021/07/21 12:14:23;;;;;;;27.70;25.70;;;;;;;;;;5055340;28;20513;-87
2021/07/21 12:16:51;;;;;;;29.30;27.20;;;;;;;;;;5055125;28;20441;-87
2021/07/21 12:19:18;;;;;;;28.43;26.30;;;;;;;;;;5055356;28;20446;-86
2021/07/21 12:21:46;;;;;;;28.97;26.97;;;;;;;;;;5055256;28;20443;-87
2021/07/21 12:24:14;;;;;;;28.60;26.57;;;;;;;;;;5055847;28;20435;-87
2021/07/21 12:26:43;;;;;;;27.37;25.37;;;;;;;;;;5055017;28;20916;-87
2021/07/21 12:29:10;;;;;;;28.70;26.60;;;;;;;;;;5055113;28;20435;-87
2021/07/21 12:31:38;;;;;;;28.00;25.90;;;;;;;;;;5055077;28;20857;-87
2021/07/21 12:34:12;;;;;;;28.30;26.00;;;;;;;;;;5054065;28;20442;-87
2021/07/21 12:36:43;;;;;;;27.80;25.60;;;;;;;;;;5037307;28;20445;-87
2021/07/21 12:39:10;;;;;;;28.20;26.20;;;;;;;;;;5055005;28;20440;-87
2021/07/21 12:41:39;;;;;;;27.60;25.60;;;;;;;;;;5055131;28;20455;-86
2021/07/21 12:44:14;;;;;;;27.90;26.00;;;;;;;;;;5054813;28;20436;-86
2021/07/21 12:46:41;;;;;;;28.90;26.80;;;;;;;;;;5037020;28;20509;-86
2021/07/21 12:49:09;;;;;;;27.83;25.93;;;;;;;;;;5054708;28;20439;-87
2021/07/21 12:51:37;;;;;;;28.53;26.60;;;;;;;;;;5054374;28;20461;-87
2021/07/21 12:54:05;;;;;;;27.57;25.50;;;;;;;;;;5054756;28;20435;-87
2021/07/21 12:56:32;;;;;;;29.60;27.40;;;;;;;;;;5054456;28;20784;-86
2021/07/21 12:59:08;;;;;;;27.80;25.80;;;;;;;;;;5054392;28;20417;-86
2021/07/21 13:01:36;;;;;;;29.30;27.20;;;;;;;;;;5054376;28;20450;-87
2021/07/21 13:04:03;;;;;;;29.03;26.40;;;;;;;;;;5054511;28;20449;-87
2021/07/21 13:06:31;;;;;;;29.73;27.40;;;;;;;;;;5054260;28;20439;-86
2021/07/21 13:08:58;;;;;;;29.90;27.60;;;;;;;;;;5054234;28;20542;-89
2021/07/21 13:11:29;;;;;;;29.27;27.20;;;;;;;;;;5020634;28;20482;-89
2021/07/21 13:13:57;;;;;;;28.87;26.77;;;;;;;;;;5054301;28;20439;-89
2021/07/21 13:16:26;;;;;;;28.70;26.60;;;;;;;;;;5054616;28;20479;-88
2021/07/21 13:19:00;;;;;;;29.80;27.70;;;;;;;;;;5054352;28;20439;-88
2021/07/21 13:21:28;;;;;;;28.33;26.33;;;;;;;;;;5036675;28;20451;-88
2021/07/21 13:23:56;;;;;;;30.13;27.93;;;;;;;;;;5054729;28;20831;-88
2021/07/21 13:26:24;;;;;;;30.27;28.07;;;;;;;;;;5054199;28;20435;-88
2021/07/21 13:28:52;;;;;;;29.47;27.37;;;;;;;;;;5036345;28;20450;-89
2021/07/21 13:31:20;;;;;;;30.00;27.80;;;;;;;;;;5054165;28;20485;-88
2021/07/21 13:33:49;;;;;;;30.37;28.17;;;;;;;;;;5054411;28;20454;-88
2021/07/21 13:36:18;;;;;;;30.27;28.17;;;;;;;;;;5054234;28;20519;-88
2021/07/21 13:38:52;;;;;;;30.60;28.27;;;;;;;;;;5054189;28;20434;-89
2021/07/21 13:41:27;;;;;;;30.70;28.43;;;;;;;;;;5054086;28;20404;-88
2021/07/21 13:43:55;;;;;;;31.10;28.60;;;;;;;;;;5036259;28;20416;-88
2021/07/21 13:46:24;;;;;;;29.50;27.50;;;;;;;;;;5057759;28;20456;-88
2021/07/21 13:48:59;;;;;;;30.87;28.70;;;;;;;;;;5058283;28;20459;-89
2021/07/21 13:51:33;;;;;;;31.73;29.33;;;;;;;;;;5058155;28;20979;-88
2021/07/21 13:54:09;;;;;;;30.90;28.70;;;;;;;;;;5058213;28;20447;-89
2021/07/21 13:56:37;;;;;;;31.97;29.37;;;;;;;;;;5057628;28;20438;-88
2021/07/21 13:59:05;;;;;;;31.60;29.40;;;;;;;;;;5057700;28;20532;-89
2021/07/21 14:01:32;;;;;;;30.97;28.67;;;;;;;;;;5057687;28;20818;-88
2021/07/21 14:04:01;;;;;;;31.50;28.93;;;;;;;;;;5057906;28;20442;-88
2021/07/21 14:06:29;;;;;;;32.80;30.20;;;;;;;;;;5058003;28;20439;-88
2021/07/21 14:08:56;;;;;;;32.70;30.10;;;;;;;;;;5058064;28;20417;-88
2021/07/21 14:11:24;;;;;;;31.60;29.30;;;;;;;;;;5057786;28;20478;-88
2021/07/21 14:13:51;;;;;;;30.90;28.70;;;;;;;;;;5057480;28;20418;-88
2021/07/21 14:16:19;;;;;;;31.13;28.70;;;;;;;;;;5040022;28;20425;-88
2021/07/21 14:18:47;;;;;;;29.40;27.30;;;;;;;;;;5057976;28;20436;-88
2021/07/21 14:21:16;;;;;;;31.83;29.33;;;;;;;;;;5057271;28;20448;-88
2021/07/21 14:23:44;;;;;;;31.33;29.03;;;;;;;;;;5057586;28;20425;-88
2021/07/21 14:26:12;;;;;;;32.73;30.20;;;;;;;;;;5057615;28;20425;-88
2021/07/21 14:28:39;;;;;;;32.03;29.63;;;;;;;;;;5057693;28;20879;-88
2021/07/21 14:31:06;;;;;;;31.73;29.20;;;;;;;;;;5057089;28;20454;-89
2021/07/21 14:33:34;;;;;;;29.70;27.50;;;;;;;;;;5057515;28;20418;-88
2021/07/21 14:36:01;;;;;;;32.40;29.77;;;;;;;;;;5057282;28;20429;-88